createdAt,value
2019-05-26T00:02:38.270Z,6.67
2019-05-26T00:07:44.587Z,7.20
2019-05-26T00:12:50.975Z,6.92
2019-05-26T00:17:57.007Z,6.87
2019-05-26T00:23:03.440Z,6.57
2019-05-26T00:28:09.883Z,6.60
2019-05-26T00:33:15.984Z,7.20
2019-05-26T00:38:22.283Z,7.10
2019-05-26T00:43:28.461Z,7.20
2019-05-26T00:48:34.619Z,7.50
2019-05-26T00:53:41.188Z,7.60
2019-05-26T00:58:48.275Z,7.50
2019-05-26T01:03:54.442Z,7.60
2019-05-26T01:09:01.495Z,8.03
2019-05-26T01:14:08.022Z,8.03
2019-05-26T01:19:14.579Z,7.90
2019-05-26T01:24:20.747Z,8.23
2019-05-26T01:29:27.544Z,8.68
2019-05-26T01:34:33.765Z,8.88
2019-05-26T01:39:40.519Z,8.80
2019-05-26T01:44:46.622Z,10.20
2019-05-26T01:49:53.437Z,9.60
2019-05-26T01:54:59.475Z,8.57
2019-05-26T02:00:06.384Z,8.58
2019-05-26T02:05:13.224Z,9.25
2019-05-26T02:10:19.932Z,9.03
2019-05-26T02:15:26.741Z,10.80
2019-05-26T02:20:32.786Z,11.10
2019-05-26T02:25:39.588Z,10.90
2019-05-26T02:30:46.164Z,10.53
2019-05-26T02:35:52.698Z,10.93
2019-05-26T02:40:59.573Z,10.70
2019-05-26T02:46:05.765Z,10.88
2019-05-26T02:51:12.129Z,12.90
2019-05-26T02:56:18.857Z,14.03
2019-05-26T03:01:25.715Z,12.95
2019-05-26T03:06:34.394Z,12.53
2019-05-26T03:11:43.692Z,11.83
2019-05-26T03:16:51.871Z,12.30
2019-05-26T03:22:00.435Z,12.57
2019-05-26T03:27:07.148Z,13.50
2019-05-26T03:32:14.007Z,12.70
2019-05-26T03:37:20.429Z,12.53
2019-05-26T03:42:26.815Z,13.63
2019-05-26T03:47:33.946Z,13.47
2019-05-26T03:52:40.591Z,12.60
2019-05-26T03:57:47.035Z,11.75
2019-05-26T04:02:53.595Z,12.03
2019-05-26T04:08:04.358Z,12.73
2019-05-26T04:13:08.270Z,14.43
2019-05-26T04:18:17.825Z,14.10
2019-05-26T04:23:27.389Z,14.03
2019-05-26T04:28:34.765Z,15.53
2019-05-26T04:33:41.238Z,16.95
2019-05-26T04:38:47.313Z,17.60
2019-05-26T04:43:53.564Z,19.47
2019-05-26T04:48:59.903Z,20.65
2019-05-26T04:54:06.501Z,20.77
2019-05-26T04:59:12.895Z,19.60
2019-05-26T05:04:19.665Z,21.37
2019-05-26T05:09:26.203Z,20.10
2019-05-26T05:14:32.708Z,20.95
2019-05-26T05:19:38.877Z,18.87
2019-05-26T05:24:45.610Z,17.67
2019-05-26T05:29:52.078Z,19.20
2019-05-26T05:34:58.556Z,21.07
2019-05-26T05:40:05.885Z,22.05
2019-05-26T05:45:12.381Z,22.27
2019-05-26T05:50:18.822Z,21.33
2019-05-26T05:55:25.241Z,20.60
2019-05-26T06:00:31.726Z,21.52
2019-05-26T06:05:37.905Z,20.35
2019-05-26T06:10:44.422Z,19.97
2019-05-26T06:15:51.075Z,22.00
2019-05-26T06:20:57.457Z,21.02
2019-05-26T06:26:03.686Z,20.00
2019-05-26T06:31:10.185Z,19.37
2019-05-26T06:36:16.569Z,19.83
2019-05-26T06:41:32.745Z,20.40
2019-05-26T06:46:31.213Z,18.73
2019-05-26T06:51:38.113Z,19.57
2019-05-26T06:56:44.188Z,18.53
2019-05-26T07:01:50.670Z,16.17
2019-05-26T07:06:57.460Z,17.73
2019-05-26T07:12:03.656Z,18.17
2019-05-26T07:17:10.119Z,18.00
2019-05-26T07:22:16.913Z,18.93
2019-05-26T07:27:23.702Z,18.33
2019-05-26T07:32:30.506Z,18.20
2019-05-26T07:37:36.622Z,17.07
2019-05-26T07:42:43.467Z,16.40
2019-05-26T07:47:50.356Z,16.87
2019-05-26T07:52:56.841Z,16.37
2019-05-26T07:58:03.637Z,15.97
2019-05-26T08:03:10.078Z,16.85
2019-05-26T08:08:16.284Z,16.47
2019-05-26T08:13:23.402Z,15.83
2019-05-26T08:18:30.298Z,15.60
2019-05-26T08:23:37.021Z,14.93
2019-05-26T08:28:43.369Z,13.63
2019-05-26T08:33:49.772Z,14.18
2019-05-26T08:38:56.138Z,13.32
2019-05-26T08:44:02.259Z,12.88
2019-05-26T08:49:08.794Z,12.15
2019-05-26T08:54:14.997Z,11.05
2019-05-26T08:59:21.091Z,9.90
2019-05-26T09:04:28.096Z,10.53
2019-05-26T09:09:34.284Z,9.50
2019-05-26T09:14:40.737Z,9.73
2019-05-26T09:19:47.306Z,8.98
2019-05-26T09:24:54.087Z,9.15
2019-05-26T09:30:00.947Z,8.13
2019-05-26T09:35:07.928Z,6.25
2019-05-26T09:40:14.562Z,6.87
2019-05-26T09:45:21.312Z,6.30
2019-05-26T09:50:27.735Z,6.40
2019-05-26T09:55:34.130Z,4.27
2019-05-26T10:00:40.658Z,3.40
2019-05-26T10:05:47.103Z,4.47
2019-05-26T10:10:54.095Z,4.53
2019-05-26T10:16:00.194Z,4.77
2019-05-26T10:21:06.365Z,2.80
2019-05-26T10:26:12.384Z,3.12
2019-05-26T10:31:18.679Z,2.95
2019-05-26T10:36:24.782Z,3.33
2019-05-26T10:41:31.144Z,2.80
2019-05-26T10:46:37.650Z,2.30
2019-05-26T10:51:44.447Z,2.77
2019-05-26T10:56:51.229Z,2.50
2019-05-26T11:01:57.907Z,2.20
2019-05-26T11:07:04.290Z,2.53
2019-05-26T11:12:10.676Z,2.60
2019-05-26T11:17:17.475Z,2.47
2019-05-26T11:22:23.951Z,2.50
2019-05-26T11:27:30.650Z,1.70
2019-05-26T11:32:37.439Z,1.70
2019-05-26T11:37:43.534Z,1.67
2019-05-26T11:42:51.587Z,1.43
2019-05-26T11:47:58.319Z,1.03
2019-05-26T11:53:04.502Z,1.32
2019-05-26T11:58:10.896Z,1.70
2019-05-26T12:03:16.987Z,2.10
2019-05-26T12:08:23.399Z,1.87
2019-05-26T12:13:29.721Z,1.40
2019-05-26T12:18:38.864Z,1.70
2019-05-26T12:23:45.571Z,1.40
2019-05-26T12:28:52.046Z,1.45
2019-05-26T12:33:58.134Z,1.40
2019-05-26T12:39:05.527Z,1.50
2019-05-26T12:44:12.223Z,1.80
2019-05-26T12:49:18.488Z,1.47
2019-05-26T12:54:24.734Z,1.40
2019-05-26T12:59:30.826Z,1.50
2019-05-26T13:04:36.995Z,1.43
2019-05-26T13:09:43.823Z,1.47
2019-05-26T13:15:05.105Z,1.40
2019-05-26T13:19:58.646Z,1.60
2019-05-26T13:25:05.747Z,1.90
2019-05-26T13:30:13.491Z,1.90
2019-05-26T13:35:20.251Z,1.57
2019-05-26T13:40:29.519Z,1.32
2019-05-26T13:45:35.156Z,1.62
2019-05-26T13:50:42.049Z,1.07
2019-05-26T13:55:48.841Z,1.20
2019-05-26T14:00:55.355Z,1.40
2019-05-26T14:06:02.105Z,1.20
2019-05-26T14:11:08.824Z,1.40
2019-05-26T14:16:15.007Z,1.10
2019-05-26T14:21:21.776Z,1.20
2019-05-26T14:26:28.295Z,1.10
2019-05-26T14:31:34.783Z,1.17
2019-05-26T14:36:41.225Z,1.30
2019-05-26T14:41:48.334Z,1.50
2019-05-26T14:46:54.499Z,1.25
2019-05-26T14:52:01.364Z,1.87
2019-05-26T14:57:08.200Z,1.60
2019-05-26T15:02:14.987Z,1.75
2019-05-26T15:07:21.183Z,1.70
2019-05-26T15:12:27.957Z,1.63
2019-05-26T15:17:34.954Z,1.40
2019-05-26T15:22:41.761Z,1.32
2019-05-26T15:27:48.550Z,1.90
2019-05-26T15:32:54.929Z,1.92
2019-05-26T15:38:01.472Z,1.80
2019-05-26T15:43:07.878Z,2.10
2019-05-26T15:48:14.280Z,2.20
2019-05-26T15:53:20.961Z,2.20
2019-05-26T15:58:28.115Z,1.95
2019-05-26T16:03:34.858Z,2.00
2019-05-26T16:08:40.960Z,2.00
2019-05-26T16:13:47.846Z,2.10
2019-05-26T16:18:54.155Z,2.20
2019-05-26T16:24:00.632Z,2.30
2019-05-26T16:29:07.372Z,2.10
2019-05-26T16:34:13.760Z,2.00
2019-05-26T16:39:34.390Z,2.20
2019-05-26T16:44:28.582Z,2.37
2019-05-26T16:49:35.457Z,2.22
2019-05-26T16:54:41.649Z,2.33
2019-05-26T16:59:47.978Z,2.20
2019-05-26T17:04:54.722Z,2.27
2019-05-26T17:10:01.095Z,2.35
2019-05-26T17:15:08.095Z,2.40
2019-05-26T17:20:16.154Z,2.33
2019-05-26T17:25:22.855Z,2.20
2019-05-26T17:30:29.714Z,2.53
2019-05-26T17:35:35.880Z,2.37
2019-05-26T17:40:42.259Z,2.60
2019-05-26T17:45:49.118Z,2.60
2019-05-26T17:50:55.747Z,2.43
2019-05-26T17:56:02.845Z,2.60
2019-05-26T18:01:09.019Z,2.70
2019-05-26T18:06:15.408Z,2.80
2019-05-26T18:11:21.949Z,3.00
2019-05-26T18:16:28.085Z,2.80
2019-05-26T18:21:34.451Z,3.00
2019-05-26T18:26:41.157Z,2.92
2019-05-26T18:31:47.988Z,3.10
2019-05-26T18:36:54.518Z,3.10
2019-05-26T18:42:01.000Z,3.35
2019-05-26T18:47:07.267Z,3.20
2019-05-26T18:52:13.375Z,3.10
2019-05-26T18:57:20.142Z,3.20
2019-05-26T19:02:26.547Z,3.30
2019-05-26T19:07:32.640Z,3.50
2019-05-26T19:12:38.807Z,3.90
2019-05-26T19:17:45.574Z,3.60
2019-05-26T19:22:53.405Z,3.70
2019-05-26T19:28:00.107Z,3.65
2019-05-26T19:33:06.826Z,3.70
2019-05-26T19:38:13.868Z,4.00
2019-05-26T19:43:20.120Z,4.40
2019-05-26T19:48:35.638Z,4.23
2019-05-26T19:53:34.306Z,4.60
2019-05-26T19:58:40.783Z,5.00
2019-05-26T20:03:47.112Z,4.97
2019-05-26T20:08:54.319Z,4.97
2019-05-26T20:14:00.415Z,5.10
2019-05-26T20:19:06.887Z,4.97
2019-05-26T20:24:13.696Z,5.07
2019-05-26T20:29:19.865Z,5.00
2019-05-26T20:34:25.963Z,4.53
2019-05-26T20:39:32.404Z,5.17
2019-05-26T20:44:38.468Z,5.07
2019-05-26T20:49:46.073Z,5.30
2019-05-26T20:54:52.261Z,5.47
2019-05-26T20:59:58.858Z,5.50
2019-05-26T21:05:05.923Z,5.47
2019-05-26T21:10:12.855Z,5.60
2019-05-26T21:15:20.140Z,5.80
2019-05-26T21:20:26.650Z,5.75
2019-05-26T21:25:33.068Z,5.35
2019-05-26T21:30:39.695Z,5.33
2019-05-26T21:35:46.506Z,5.70
2019-05-26T21:40:53.192Z,5.95
2019-05-26T21:46:00.535Z,5.85
2019-05-26T21:51:06.979Z,5.80
2019-05-26T21:56:13.260Z,5.90
2019-05-26T22:01:20.157Z,6.08
2019-05-26T22:06:26.553Z,6.27
2019-05-26T22:11:33.555Z,6.17
2019-05-26T22:16:39.737Z,6.50
2019-05-26T22:21:45.904Z,6.30
2019-05-26T22:26:52.579Z,6.90
2019-05-26T22:31:59.271Z,6.62
2019-05-26T22:37:05.751Z,6.35
2019-05-26T22:42:12.146Z,6.43
2019-05-26T22:47:18.318Z,7.00
2019-05-26T22:52:25.119Z,7.30
2019-05-26T22:57:32.112Z,7.50
2019-05-26T23:02:38.272Z,7.97
2019-05-26T23:07:45.330Z,7.15
2019-05-26T23:12:51.857Z,7.10
2019-05-26T23:17:58.959Z,7.30
2019-05-26T23:23:05.151Z,7.30
2019-05-26T23:28:12.502Z,7.33
2019-05-26T23:33:18.938Z,7.65
2019-05-26T23:38:25.622Z,8.03
2019-05-26T23:43:32.711Z,7.50
2019-05-26T23:48:39.161Z,7.65
2019-05-26T23:53:45.587Z,7.80
2019-05-26T23:58:52.723Z,8.33
